sensor_id;sensor_type;location;lat;lon;timestamp;P1;durP1;ratioP1;P2;durP2;ratioP2
41966;SDS011;27656;53.068;8.818;2023-06-19T00:01:25;7.30;;;5.73;;
41966;SDS011;27656;53.068;8.818;2023-06-19T00:03:52;7.37;;;5.83;;
41966;SDS011;27656;53.068;8.818;2023-06-19T00:06:18;8.37;;;5.80;;
41966;SDS011;27656;53.068;8.818;2023-06-19T00:08:45;6.40;;;5.80;;
41966;SDS011;27656;53.068;8.818;2023-06-19T00:11:11;6.83;;;5.40;;
41966;SDS011;27656;53.068;8.818;2023-06-19T00:13:38;7.07;;;5.87;;
41966;SDS011;27656;53.068;8.818;2023-06-19T00:16:06;12.17;;;6.00;;
41966;SDS011;27656;53.068;8.818;2023-06-19T00:18:32;8.90;;;5.40;;
41966;SDS011;27656;53.068;8.818;2023-06-19T00:21:06;7.70;;;5.60;;
41966;SDS011;27656;53.068;8.818;2023-06-19T00:23:33;7.33;;;5.70;;
41966;SDS011;27656;53.068;8.818;2023-06-19T00:26:00;6.80;;;5.10;;
41966;SDS011;27656;53.068;8.818;2023-06-19T00:28:30;6.37;;;4.93;;
41966;SDS011;27656;53.068;8.818;2023-06-19T00:30:56;7.87;;;5.37;;
41966;SDS011;27656;53.068;8.818;2023-06-19T00:33:23;7.60;;;5.47;;
41966;SDS011;27656;53.068;8.818;2023-06-19T00:35:50;6.50;;;5.80;;
41966;SDS011;27656;53.068;8.818;2023-06-19T00:38:17;6.40;;;5.03;;
41966;SDS011;27656;53.068;8.818;2023-06-19T00:40:43;8.87;;;5.40;;
41966;SDS011;27656;53.068;8.818;2023-06-19T00:43:10;6.50;;;5.40;;
41966;SDS011;27656;53.068;8.818;2023-06-19T00:45:36;6.33;;;5.37;;
41966;SDS011;27656;53.068;8.818;2023-06-19T00:48:03;7.83;;;5.37;;
41966;SDS011;27656;53.068;8.818;2023-06-19T00:50:30;7.53;;;5.70;;
41966;SDS011;27656;53.068;8.818;2023-06-19T00:52:57;7.00;;;5.30;;
41966;SDS011;27656;53.068;8.818;2023-06-19T00:55:25;6.73;;;5.67;;
41966;SDS011;27656;53.068;8.818;2023-06-19T00:57:55;5.90;;;5.10;;
41966;SDS011;27656;53.068;8.818;2023-06-19T01:00:22;8.30;;;5.93;;
41966;SDS011;27656;53.068;8.818;2023-06-19T01:02:49;8.07;;;6.40;;
41966;SDS011;27656;53.068;8.818;2023-06-19T01:05:15;8.07;;;6.10;;
41966;SDS011;27656;53.068;8.818;2023-06-19T01:10:20;6.20;;;5.60;;
41966;SDS011;27656;53.068;8.818;2023-06-19T01:12:54;9.37;;;5.77;;
41966;SDS011;27656;53.068;8.818;2023-06-19T01:15:23;6.83;;;5.33;;
41966;SDS011;27656;53.068;8.818;2023-06-19T01:17:50;7.57;;;5.87;;
41966;SDS011;27656;53.068;8.818;2023-06-19T01:20:17;7.77;;;6.10;;
41966;SDS011;27656;53.068;8.818;2023-06-19T01:22:44;7.60;;;5.67;;
41966;SDS011;27656;53.068;8.818;2023-06-19T01:25:10;7.07;;;5.90;;
41966;SDS011;27656;53.068;8.818;2023-06-19T01:27:41;9.03;;;6.40;;
41966;SDS011;27656;53.068;8.818;2023-06-19T01:30:11;8.70;;;6.27;;
41966;SDS011;27656;53.068;8.818;2023-06-19T01:35:11;8.50;;;5.83;;
41966;SDS011;27656;53.068;8.818;2023-06-19T01:37:40;8.10;;;6.33;;
41966;SDS011;27656;53.068;8.818;2023-06-19T01:40:07;8.30;;;5.97;;
41966;SDS011;27656;53.068;8.818;2023-06-19T01:42:35;8.40;;;6.30;;
41966;SDS011;27656;53.068;8.818;2023-06-19T01:45:03;8.57;;;6.40;;
41966;SDS011;27656;53.068;8.818;2023-06-19T01:47:31;8.83;;;6.50;;
41966;SDS011;27656;53.068;8.818;2023-06-19T01:49:57;10.77;;;6.30;;
41966;SDS011;27656;53.068;8.818;2023-06-19T01:52:24;6.97;;;5.53;;
41966;SDS011;27656;53.068;8.818;2023-06-19T01:54:51;8.93;;;6.53;;
41966;SDS011;27656;53.068;8.818;2023-06-19T01:57:17;9.33;;;5.93;;
41966;SDS011;27656;53.068;8.818;2023-06-19T01:59:44;6.60;;;5.57;;
41966;SDS011;27656;53.068;8.818;2023-06-19T02:02:10;7.10;;;5.90;;
41966;SDS011;27656;53.068;8.818;2023-06-19T02:04:37;9.03;;;5.93;;
41966;SDS011;27656;53.068;8.818;2023-06-19T02:07:04;16.00;;;5.87;;
41966;SDS011;27656;53.068;8.818;2023-06-19T02:09:31;6.53;;;5.83;;
41966;SDS011;27656;53.068;8.818;2023-06-19T02:11:58;6.73;;;5.23;;
41966;SDS011;27656;53.068;8.818;2023-06-19T02:14:24;6.90;;;5.97;;
41966;SDS011;27656;53.068;8.818;2023-06-19T02:16:51;7.53;;;6.10;;
41966;SDS011;27656;53.068;8.818;2023-06-19T02:19:17;7.80;;;6.00;;
41966;SDS011;27656;53.068;8.818;2023-06-19T02:21:43;7.50;;;5.77;;
41966;SDS011;27656;53.068;8.818;2023-06-19T02:24:10;6.73;;;5.87;;
41966;SDS011;27656;53.068;8.818;2023-06-19T02:26:36;6.70;;;5.70;;
41966;SDS011;27656;53.068;8.818;2023-06-19T02:29:03;10.10;;;6.57;;
41966;SDS011;27656;53.068;8.818;2023-06-19T02:31:29;8.57;;;6.17;;
41966;SDS011;27656;53.068;8.818;2023-06-19T02:33:56;7.97;;;6.00;;
41966;SDS011;27656;53.068;8.818;2023-06-19T02:36:22;7.47;;;6.07;;
41966;SDS011;27656;53.068;8.818;2023-06-19T02:38:49;11.23;;;6.20;;
41966;SDS011;27656;53.068;8.818;2023-06-19T02:41:15;9.80;;;6.37;;
41966;SDS011;27656;53.068;8.818;2023-06-19T02:43:42;6.17;;;5.57;;
41966;SDS011;27656;53.068;8.818;2023-06-19T02:46:08;6.90;;;6.07;;
41966;SDS011;27656;53.068;8.818;2023-06-19T02:48:38;7.17;;;6.23;;
41966;SDS011;27656;53.068;8.818;2023-06-19T02:51:05;8.90;;;6.90;;
41966;SDS011;27656;53.068;8.818;2023-06-19T02:53:31;7.30;;;5.67;;
41966;SDS011;27656;53.068;8.818;2023-06-19T02:55:58;7.50;;;6.80;;
41966;SDS011;27656;53.068;8.818;2023-06-19T02:58:24;10.43;;;6.97;;
41966;SDS011;27656;53.068;8.818;2023-06-19T03:00:52;8.93;;;6.97;;
41966;SDS011;27656;53.068;8.818;2023-06-19T03:03:19;8.20;;;6.53;;
41966;SDS011;27656;53.068;8.818;2023-06-19T03:05:46;7.93;;;6.47;;
41966;SDS011;27656;53.068;8.818;2023-06-19T03:08:12;7.63;;;6.57;;
41966;SDS011;27656;53.068;8.818;2023-06-19T03:10:39;8.30;;;6.40;;
41966;SDS011;27656;53.068;8.818;2023-06-19T03:13:06;8.13;;;6.13;;
41966;SDS011;27656;53.068;8.818;2023-06-19T03:15:32;11.23;;;7.00;;
41966;SDS011;27656;53.068;8.818;2023-06-19T03:17:58;7.73;;;6.37;;
41966;SDS011;27656;53.068;8.818;2023-06-19T03:20:25;7.97;;;6.93;;
41966;SDS011;27656;53.068;8.818;2023-06-19T03:22:52;8.70;;;6.87;;
41966;SDS011;27656;53.068;8.818;2023-06-19T03:25:19;7.10;;;6.40;;
41966;SDS011;27656;53.068;8.818;2023-06-19T03:27:46;7.23;;;6.33;;
41966;SDS011;27656;53.068;8.818;2023-06-19T03:30:12;8.67;;;6.57;;
41966;SDS011;27656;53.068;8.818;2023-06-19T03:32:39;8.97;;;6.73;;
41966;SDS011;27656;53.068;8.818;2023-06-19T03:35:05;9.10;;;6.67;;
41966;SDS011;27656;53.068;8.818;2023-06-19T03:37:32;8.37;;;5.90;;
41966;SDS011;27656;53.068;8.818;2023-06-19T03:39:59;6.27;;;5.67;;
41966;SDS011;27656;53.068;8.818;2023-06-19T03:42:25;7.73;;;6.77;;
41966;SDS011;27656;53.068;8.818;2023-06-19T03:44:52;8.30;;;6.37;;
41966;SDS011;27656;53.068;8.818;2023-06-19T03:47:19;9.00;;;6.93;;
41966;SDS011;27656;53.068;8.818;2023-06-19T03:49:45;8.70;;;6.90;;
41966;SDS011;27656;53.068;8.818;2023-06-19T03:52:12;7.43;;;6.63;;
41966;SDS011;27656;53.068;8.818;2023-06-19T03:54:38;11.50;;;7.20;;
41966;SDS011;27656;53.068;8.818;2023-06-19T03:57:05;8.30;;;6.67;;
41966;SDS011;27656;53.068;8.818;2023-06-19T03:59:32;9.67;;;6.67;;
41966;SDS011;27656;53.068;8.818;2023-06-19T04:01:58;7.40;;;6.53;;
41966;SDS011;27656;53.068;8.818;2023-06-19T04:04:25;7.37;;;6.47;;
41966;SDS011;27656;53.068;8.818;2023-06-19T04:06:52;8.33;;;6.63;;
41966;SDS011;27656;53.068;8.818;2023-06-19T04:09:19;10.30;;;7.03;;
41966;SDS011;27656;53.068;8.818;2023-06-19T04:11:45;9.60;;;6.70;;
41966;SDS011;27656;53.068;8.818;2023-06-19T04:14:12;10.00;;;7.37;;
41966;SDS011;27656;53.068;8.818;2023-06-19T04:16:38;8.20;;;7.30;;
41966;SDS011;27656;53.068;8.818;2023-06-19T04:19:04;8.27;;;6.60;;
41966;SDS011;27656;53.068;8.818;2023-06-19T04:21:31;7.73;;;6.87;;
41966;SDS011;27656;53.068;8.818;2023-06-19T04:23:57;8.67;;;7.13;;
41966;SDS011;27656;53.068;8.818;2023-06-19T04:26:24;9.43;;;6.83;;
41966;SDS011;27656;53.068;8.818;2023-06-19T04:28:51;8.00;;;7.10;;
41966;SDS011;27656;53.068;8.818;2023-06-19T04:31:18;8.27;;;7.00;;
41966;SDS011;27656;53.068;8.818;2023-06-19T04:33:45;9.33;;;7.40;;
41966;SDS011;27656;53.068;8.818;2023-06-19T04:36:11;9.17;;;7.40;;
41966;SDS011;27656;53.068;8.818;2023-06-19T04:38:38;10.50;;;7.53;;
41966;SDS011;27656;53.068;8.818;2023-06-19T04:41:04;9.53;;;7.20;;
41966;SDS011;27656;53.068;8.818;2023-06-19T04:43:31;7.77;;;6.97;;
41966;SDS011;27656;53.068;8.818;2023-06-19T04:45:59;10.23;;;7.23;;
41966;SDS011;27656;53.068;8.818;2023-06-19T04:48:26;11.43;;;7.03;;
41966;SDS011;27656;53.068;8.818;2023-06-19T04:50:53;11.50;;;6.83;;
41966;SDS011;27656;53.068;8.818;2023-06-19T04:53:22;8.27;;;7.00;;
41966;SDS011;27656;53.068;8.818;2023-06-19T04:55:48;7.70;;;6.73;;
41966;SDS011;27656;53.068;8.818;2023-06-19T04:58:15;8.63;;;7.27;;
41966;SDS011;27656;53.068;8.818;2023-06-19T05:00:42;7.53;;;6.77;;
41966;SDS011;27656;53.068;8.818;2023-06-19T05:03:09;9.27;;;7.13;;
41966;SDS011;27656;53.068;8.818;2023-06-19T05:05:35;7.50;;;6.63;;
41966;SDS011;27656;53.068;8.818;2023-06-19T05:08:02;8.20;;;7.13;;
41966;SDS011;27656;53.068;8.818;2023-06-19T05:10:28;10.27;;;7.60;;
41966;SDS011;27656;53.068;8.818;2023-06-19T05:12:55;7.47;;;6.60;;
41966;SDS011;27656;53.068;8.818;2023-06-19T05:15:21;7.60;;;6.80;;
41966;SDS011;27656;53.068;8.818;2023-06-19T05:17:48;10.23;;;6.73;;
41966;SDS011;27656;53.068;8.818;2023-06-19T05:20:14;8.00;;;6.43;;
41966;SDS011;27656;53.068;8.818;2023-06-19T05:22:41;9.77;;;7.17;;
41966;SDS011;27656;53.068;8.818;2023-06-19T05:25:08;11.40;;;7.03;;
41966;SDS011;27656;53.068;8.818;2023-06-19T05:27:34;10.57;;;6.43;;
41966;SDS011;27656;53.068;8.818;2023-06-19T05:30:01;7.40;;;6.37;;
41966;SDS011;27656;53.068;8.818;2023-06-19T05:32:28;7.47;;;6.67;;
41966;SDS011;27656;53.068;8.818;2023-06-19T05:34:54;9.13;;;7.17;;
41966;SDS011;27656;53.068;8.818;2023-06-19T05:37:21;12.20;;;7.13;;
41966;SDS011;27656;53.068;8.818;2023-06-19T05:39:48;7.43;;;6.73;;
41966;SDS011;27656;53.068;8.818;2023-06-19T05:42:15;9.53;;;7.07;;
41966;SDS011;27656;53.068;8.818;2023-06-19T05:44:41;8.77;;;7.03;;
41966;SDS011;27656;53.068;8.818;2023-06-19T05:47:08;8.20;;;5.97;;
41966;SDS011;27656;53.068;8.818;2023-06-19T05:49:34;8.70;;;6.57;;
41966;SDS011;27656;53.068;8.818;2023-06-19T05:52:01;8.60;;;6.53;;
41966;SDS011;27656;53.068;8.818;2023-06-19T05:54:27;10.43;;;6.80;;
41966;SDS011;27656;53.068;8.818;2023-06-19T05:56:54;9.67;;;6.77;;
41966;SDS011;27656;53.068;8.818;2023-06-19T05:59:20;7.97;;;6.50;;
41966;SDS011;27656;53.068;8.818;2023-06-19T06:01:48;9.17;;;6.97;;
41966;SDS011;27656;53.068;8.818;2023-06-19T06:04:16;8.83;;;6.93;;
41966;SDS011;27656;53.068;8.818;2023-06-19T06:06:43;9.77;;;6.83;;
41966;SDS011;27656;53.068;8.818;2023-06-19T06:09:10;9.77;;;7.03;;
41966;SDS011;27656;53.068;8.818;2023-06-19T06:11:38;6.80;;;6.07;;
41966;SDS011;27656;53.068;8.818;2023-06-19T06:14:05;10.87;;;6.97;;
41966;SDS011;27656;53.068;8.818;2023-06-19T06:16:31;10.73;;;6.57;;
41966;SDS011;27656;53.068;8.818;2023-06-19T06:18:58;12.37;;;6.60;;
41966;SDS011;27656;53.068;8.818;2023-06-19T06:21:25;9.93;;;7.30;;
41966;SDS011;27656;53.068;8.818;2023-06-19T06:23:52;8.50;;;7.10;;
41966;SDS011;27656;53.068;8.818;2023-06-19T06:26:19;11.65;;;6.63;;
41966;SDS011;27656;53.068;8.818;2023-06-19T06:28:45;7.70;;;6.90;;
41966;SDS011;27656;53.068;8.818;2023-06-19T06:31:12;8.48;;;7.05;;
41966;SDS011;27656;53.068;8.818;2023-06-19T06:33:38;7.18;;;6.10;;
41966;SDS011;27656;53.068;8.818;2023-06-19T06:36:05;9.65;;;6.93;;
41966;SDS011;27656;53.068;8.818;2023-06-19T06:38:34;10.63;;;6.82;;
41966;SDS011;27656;53.068;8.818;2023-06-19T06:41:01;12.98;;;7.05;;
41966;SDS011;27656;53.068;8.818;2023-06-19T06:43:27;7.05;;;6.35;;
41966;SDS011;27656;53.068;8.818;2023-06-19T06:45:54;7.90;;;5.95;;
41966;SDS011;27656;53.068;8.818;2023-06-19T06:48:20;8.73;;;6.57;;
41966;SDS011;27656;53.068;8.818;2023-06-19T06:50:47;7.57;;;6.82;;
41966;SDS011;27656;53.068;8.818;2023-06-19T06:53:13;7.35;;;6.40;;
41966;SDS011;27656;53.068;8.818;2023-06-19T06:55:40;8.48;;;6.65;;
41966;SDS011;27656;53.068;8.818;2023-06-19T06:58:07;7.43;;;6.60;;
41966;SDS011;27656;53.068;8.818;2023-06-19T07:00:33;9.63;;;6.60;;
41966;SDS011;27656;53.068;8.818;2023-06-19T07:03:00;7.97;;;6.43;;
41966;SDS011;27656;53.068;8.818;2023-06-19T07:05:26;9.85;;;6.55;;
41966;SDS011;27656;53.068;8.818;2023-06-19T07:07:55;14.05;;;6.82;;
41966;SDS011;27656;53.068;8.818;2023-06-19T07:10:21;10.50;;;6.05;;
41966;SDS011;27656;53.068;8.818;2023-06-19T07:12:48;7.00;;;6.07;;
41966;SDS011;27656;53.068;8.818;2023-06-19T07:15:15;9.48;;;6.65;;
41966;SDS011;27656;53.068;8.818;2023-06-19T07:17:43;7.05;;;6.25;;
41966;SDS011;27656;53.068;8.818;2023-06-19T07:20:11;9.88;;;6.70;;
41966;SDS011;27656;53.068;8.818;2023-06-19T07:22:37;12.70;;;5.88;;
41966;SDS011;27656;53.068;8.818;2023-06-19T07:25:05;9.48;;;6.32;;
41966;SDS011;27656;53.068;8.818;2023-06-19T07:27:31;9.30;;;6.57;;
41966;SDS011;27656;53.068;8.818;2023-06-19T07:29:58;7.22;;;5.63;;
41966;SDS011;27656;53.068;8.818;2023-06-19T07:32:25;7.93;;;6.20;;
41966;SDS011;27656;53.068;8.818;2023-06-19T07:34:51;11.23;;;6.10;;
41966;SDS011;27656;53.068;8.818;2023-06-19T07:37:18;8.20;;;5.57;;
41966;SDS011;27656;53.068;8.818;2023-06-19T07:39:45;10.63;;;8.40;;
41966;SDS011;27656;53.068;8.818;2023-06-19T07:42:12;14.88;;;9.45;;
41966;SDS011;27656;53.068;8.818;2023-06-19T07:44:39;7.15;;;5.35;;
41966;SDS011;27656;53.068;8.818;2023-06-19T07:47:06;6.03;;;4.38;;
41966;SDS011;27656;53.068;8.818;2023-06-19T07:49:33;8.00;;;4.85;;
41966;SDS011;27656;53.068;8.818;2023-06-19T07:52:00;6.03;;;4.97;;
41966;SDS011;27656;53.068;8.818;2023-06-19T07:54:26;6.13;;;4.75;;
41966;SDS011;27656;53.068;8.818;2023-06-19T07:56:53;7.03;;;4.85;;
41966;SDS011;27656;53.068;8.818;2023-06-19T07:59:19;5.57;;;4.53;;
41966;SDS011;27656;53.068;8.818;2023-06-19T08:01:46;5.97;;;5.20;;
41966;SDS011;27656;53.068;8.818;2023-06-19T08:04:13;6.70;;;4.97;;
41966;SDS011;27656;53.068;8.818;2023-06-19T08:06:39;8.45;;;4.80;;
41966;SDS011;27656;53.068;8.818;2023-06-19T08:09:06;6.85;;;5.00;;
41966;SDS011;27656;53.068;8.818;2023-06-19T08:11:32;5.28;;;4.60;;
41966;SDS011;27656;53.068;8.818;2023-06-19T08:13:59;7.53;;;4.90;;
41966;SDS011;27656;53.068;8.818;2023-06-19T08:16:25;7.25;;;5.38;;
41966;SDS011;27656;53.068;8.818;2023-06-19T08:18:52;6.63;;;4.55;;
41966;SDS011;27656;53.068;8.818;2023-06-19T08:21:19;9.38;;;5.40;;
41966;SDS011;27656;53.068;8.818;2023-06-19T08:23:48;6.97;;;5.30;;
41966;SDS011;27656;53.068;8.818;2023-06-19T08:26:14;7.10;;;5.28;;
41966;SDS011;27656;53.068;8.818;2023-06-19T08:28:41;7.30;;;5.45;;
41966;SDS011;27656;53.068;8.818;2023-06-19T08:31:09;7.82;;;4.78;;
41966;SDS011;27656;53.068;8.818;2023-06-19T08:33:35;8.00;;;4.70;;
41966;SDS011;27656;53.068;8.818;2023-06-19T08:36:02;7.45;;;5.03;;
41966;SDS011;27656;53.068;8.818;2023-06-19T08:38:28;5.38;;;4.82;;
41966;SDS011;27656;53.068;8.818;2023-06-19T08:40:56;10.10;;;5.32;;
41966;SDS011;27656;53.068;8.818;2023-06-19T08:43:23;5.90;;;5.30;;
41966;SDS011;27656;53.068;8.818;2023-06-19T08:45:55;11.43;;;5.70;;
41966;SDS011;27656;53.068;8.818;2023-06-19T08:48:38;6.90;;;5.70;;
41966;SDS011;27656;53.068;8.818;2023-06-19T08:51:05;9.15;;;5.28;;
41966;SDS011;27656;53.068;8.818;2023-06-19T08:53:32;6.97;;;5.20;;
41966;SDS011;27656;53.068;8.818;2023-06-19T08:56:03;6.40;;;4.82;;
41966;SDS011;27656;53.068;8.818;2023-06-19T08:58:30;11.35;;;4.85;;
41966;SDS011;27656;53.068;8.818;2023-06-19T09:00:59;6.82;;;5.15;;
41966;SDS011;27656;53.068;8.818;2023-06-19T09:03:26;7.25;;;5.10;;
41966;SDS011;27656;53.068;8.818;2023-06-19T09:05:53;7.50;;;5.13;;
41966;SDS011;27656;53.068;8.818;2023-06-19T09:08:20;4.93;;;4.10;;
41966;SDS011;27656;53.068;8.818;2023-06-19T09:11:01;10.73;;;5.05;;
41966;SDS011;27656;53.068;8.818;2023-06-19T09:13:29;5.22;;;4.20;;
41966;SDS011;27656;53.068;8.818;2023-06-19T09:16:00;6.75;;;4.05;;
41966;SDS011;27656;53.068;8.818;2023-06-19T09:18:42;10.32;;;3.97;;
41966;SDS011;27656;53.068;8.818;2023-06-19T09:21:16;8.05;;;4.07;;
41966;SDS011;27656;53.068;8.818;2023-06-19T09:23:45;4.75;;;4.05;;
41966;SDS011;27656;53.068;8.818;2023-06-19T09:26:15;6.40;;;4.20;;
41966;SDS011;27656;53.068;8.818;2023-06-19T09:28:42;6.00;;;4.43;;
41966;SDS011;27656;53.068;8.818;2023-06-19T09:31:09;7.63;;;4.78;;
41966;SDS011;27656;53.068;8.818;2023-06-19T09:33:36;6.35;;;3.92;;
41966;SDS011;27656;53.068;8.818;2023-06-19T09:36:04;7.88;;;3.72;;
41966;SDS011;27656;53.068;8.818;2023-06-19T09:38:40;4.28;;;3.20;;
41966;SDS011;27656;53.068;8.818;2023-06-19T09:41:07;5.60;;;2.75;;
41966;SDS011;27656;53.068;8.818;2023-06-19T09:43:43;5.60;;;2.72;;
41966;SDS011;27656;53.068;8.818;2023-06-19T09:46:10;4.53;;;2.63;;
41966;SDS011;27656;53.068;8.818;2023-06-19T09:48:44;3.28;;;2.70;;
41966;SDS011;27656;53.068;8.818;2023-06-19T09:51:18;6.85;;;2.72;;
41966;SDS011;27656;53.068;8.818;2023-06-19T09:53:45;8.35;;;3.05;;
41966;SDS011;27656;53.068;8.818;2023-06-19T09:56:13;4.75;;;3.00;;
41966;SDS011;27656;53.068;8.818;2023-06-19T09:58:41;3.13;;;2.80;;
41966;SDS011;27656;53.068;8.818;2023-06-19T10:01:08;4.60;;;2.80;;
41966;SDS011;27656;53.068;8.818;2023-06-19T10:03:35;5.30;;;2.47;;
41966;SDS011;27656;53.068;8.818;2023-06-19T10:06:03;8.43;;;2.40;;
41966;SDS011;27656;53.068;8.818;2023-06-19T10:08:31;4.50;;;2.70;;
41966;SDS011;27656;53.068;8.818;2023-06-19T10:10:59;5.35;;;3.40;;
41966;SDS011;27656;53.068;8.818;2023-06-19T10:13:32;6.50;;;3.22;;
41966;SDS011;27656;53.068;8.818;2023-06-19T10:16:00;4.57;;;3.42;;
41966;SDS011;27656;53.068;8.818;2023-06-19T10:18:26;5.97;;;3.70;;
41966;SDS011;27656;53.068;8.818;2023-06-19T10:20:54;7.07;;;3.55;;
41966;SDS011;27656;53.068;8.818;2023-06-19T10:23:21;4.88;;;3.17;;
41966;SDS011;27656;53.068;8.818;2023-06-19T10:28:20;5.90;;;3.45;;
41966;SDS011;27656;53.068;8.818;2023-06-19T10:30:56;3.33;;;2.67;;
41966;SDS011;27656;53.068;8.818;2023-06-19T10:33:27;10.32;;;3.10;;
41966;SDS011;27656;53.068;8.818;2023-06-19T10:35:55;7.25;;;2.92;;
41966;SDS011;27656;53.068;8.818;2023-06-19T10:38:22;5.40;;;2.75;;
41966;SDS011;27656;53.068;8.818;2023-06-19T10:40:49;5.32;;;3.50;;
41966;SDS011;27656;53.068;8.818;2023-06-19T10:43:22;5.05;;;4.28;;
41966;SDS011;27656;53.068;8.818;2023-06-19T10:45:54;9.02;;;5.15;;
41966;SDS011;27656;53.068;8.818;2023-06-19T10:48:22;6.07;;;4.68;;
41966;SDS011;27656;53.068;8.818;2023-06-19T10:50:49;5.68;;;4.90;;
41966;SDS011;27656;53.068;8.818;2023-06-19T10:53:50;6.57;;;4.70;;
41966;SDS011;27656;53.068;8.818;2023-06-19T10:56:09;6.47;;;5.88;;
41966;SDS011;27656;53.068;8.818;2023-06-19T10:58:35;14.20;;;6.22;;
41966;SDS011;27656;53.068;8.818;2023-06-19T11:01:02;8.05;;;6.63;;
41966;SDS011;27656;53.068;8.818;2023-06-19T11:03:28;9.35;;;8.35;;
41966;SDS011;27656;53.068;8.818;2023-06-19T11:05:55;9.82;;;8.98;;
41966;SDS011;27656;53.068;8.818;2023-06-19T11:08:22;11.50;;;8.95;;
41966;SDS011;27656;53.068;8.818;2023-06-19T11:10:49;10.43;;;9.13;;
41966;SDS011;27656;53.068;8.818;2023-06-19T11:13:19;12.48;;;9.32;;
41966;SDS011;27656;53.068;8.818;2023-06-19T11:15:49;11.25;;;9.70;;
41966;SDS011;27656;53.068;8.818;2023-06-19T11:18:17;9.88;;;8.98;;
41966;SDS011;27656;53.068;8.818;2023-06-19T11:23:14;6.95;;;6.35;;
41966;SDS011;27656;53.068;8.818;2023-06-19T11:25:41;6.13;;;5.60;;
41966;SDS011;27656;53.068;8.818;2023-06-19T11:28:12;8.18;;;5.38;;
41966;SDS011;27656;53.068;8.818;2023-06-19T11:30:45;5.63;;;5.03;;
41966;SDS011;27656;53.068;8.818;2023-06-19T11:35:51;8.88;;;4.70;;
41966;SDS011;27656;53.068;8.818;2023-06-19T11:38:23;5.18;;;3.70;;
41966;SDS011;27656;53.068;8.818;2023-06-19T11:40:51;4.47;;;4.07;;
41966;SDS011;27656;53.068;8.818;2023-06-19T11:43:24;5.43;;;4.93;;
41966;SDS011;27656;53.068;8.818;2023-06-19T11:45:51;4.35;;;3.78;;
41966;SDS011;27656;53.068;8.818;2023-06-19T11:48:22;4.85;;;4.35;;
41966;SDS011;27656;53.068;8.818;2023-06-19T11:50:50;8.13;;;5.00;;
41966;SDS011;27656;53.068;8.818;2023-06-19T11:53:18;6.22;;;4.43;;
41966;SDS011;27656;53.068;8.818;2023-06-19T11:55:46;6.90;;;4.97;;
41966;SDS011;27656;53.068;8.818;2023-06-19T11:58:12;6.30;;;4.55;;
41966;SDS011;27656;53.068;8.818;2023-06-19T12:00:39;6.07;;;5.43;;
41966;SDS011;27656;53.068;8.818;2023-06-19T12:03:05;6.85;;;6.15;;
41966;SDS011;27656;53.068;8.818;2023-06-19T12:05:32;7.88;;;6.10;;
41966;SDS011;27656;53.068;8.818;2023-06-19T12:07:58;10.65;;;7.85;;
41966;SDS011;27656;53.068;8.818;2023-06-19T12:10:28;11.00;;;7.50;;
41966;SDS011;27656;53.068;8.818;2023-06-19T12:12:55;15.55;;;8.65;;
41966;SDS011;27656;53.068;8.818;2023-06-19T12:15:22;9.73;;;8.05;;
41966;SDS011;27656;53.068;8.818;2023-06-19T12:17:48;9.63;;;7.88;;
41966;SDS011;27656;53.068;8.818;2023-06-19T12:20:15;12.25;;;7.72;;
41966;SDS011;27656;53.068;8.818;2023-06-19T12:22:41;11.00;;;7.30;;
41966;SDS011;27656;53.068;8.818;2023-06-19T12:25:08;6.10;;;5.38;;
41966;SDS011;27656;53.068;8.818;2023-06-19T12:27:35;10.45;;;5.65;;
41966;SDS011;27656;53.068;8.818;2023-06-19T12:30:01;8.93;;;5.38;;
41966;SDS011;27656;53.068;8.818;2023-06-19T12:32:28;7.00;;;5.40;;
41966;SDS011;27656;53.068;8.818;2023-06-19T12:34:55;5.68;;;5.07;;
41966;SDS011;27656;53.068;8.818;2023-06-19T12:37:21;6.80;;;5.43;;
41966;SDS011;27656;53.068;8.818;2023-06-19T12:39:49;7.65;;;4.80;;
41966;SDS011;27656;53.068;8.818;2023-06-19T12:42:16;5.40;;;4.45;;
41966;SDS011;27656;53.068;8.818;2023-06-19T12:44:43;5.75;;;4.90;;
41966;SDS011;27656;53.068;8.818;2023-06-19T12:47:12;7.32;;;4.38;;
41966;SDS011;27656;53.068;8.818;2023-06-19T12:49:39;4.75;;;3.70;;
41966;SDS011;27656;53.068;8.818;2023-06-19T12:52:06;5.15;;;4.13;;
41966;SDS011;27656;53.068;8.818;2023-06-19T12:54:33;5.65;;;4.15;;
41966;SDS011;27656;53.068;8.818;2023-06-19T12:56:59;7.90;;;4.53;;
41966;SDS011;27656;53.068;8.818;2023-06-19T12:59:25;5.82;;;3.60;;
41966;SDS011;27656;53.068;8.818;2023-06-19T13:01:52;7.90;;;4.32;;
41966;SDS011;27656;53.068;8.818;2023-06-19T13:04:19;4.97;;;4.07;;
41966;SDS011;27656;53.068;8.818;2023-06-19T13:06:45;5.45;;;3.85;;
41966;SDS011;27656;53.068;8.818;2023-06-19T13:09:12;9.48;;;4.50;;
41966;SDS011;27656;53.068;8.818;2023-06-19T13:11:38;5.60;;;4.25;;
41966;SDS011;27656;53.068;8.818;2023-06-19T13:14:05;7.10;;;4.07;;
41966;SDS011;27656;53.068;8.818;2023-06-19T13:16:31;4.03;;;3.60;;
41966;SDS011;27656;53.068;8.818;2023-06-19T13:19:11;5.05;;;3.92;;
41966;SDS011;27656;53.068;8.818;2023-06-19T13:21:38;5.30;;;4.68;;
41966;SDS011;27656;53.068;8.818;2023-06-19T13:24:04;5.07;;;4.57;;
41966;SDS011;27656;53.068;8.818;2023-06-19T13:26:31;7.55;;;4.53;;
41966;SDS011;27656;53.068;8.818;2023-06-19T13:28:58;6.55;;;4.88;;
41966;SDS011;27656;53.068;8.818;2023-06-19T13:31:25;5.97;;;5.18;;
41966;SDS011;27656;53.068;8.818;2023-06-19T13:33:51;7.35;;;4.30;;
41966;SDS011;27656;53.068;8.818;2023-06-19T13:36:18;4.85;;;4.35;;
41966;SDS011;27656;53.068;8.818;2023-06-19T13:38:48;6.35;;;4.32;;
41966;SDS011;27656;53.068;8.818;2023-06-19T13:41:14;5.93;;;4.22;;
41966;SDS011;27656;53.068;8.818;2023-06-19T13:43:41;5.93;;;5.32;;
41966;SDS011;27656;53.068;8.818;2023-06-19T13:46:07;7.13;;;5.18;;
41966;SDS011;27656;53.068;8.818;2023-06-19T13:48:34;8.30;;;5.45;;
41966;SDS011;27656;53.068;8.818;2023-06-19T13:51:01;5.70;;;5.10;;
41966;SDS011;27656;53.068;8.818;2023-06-19T13:53:27;7.57;;;5.07;;
41966;SDS011;27656;53.068;8.818;2023-06-19T13:55:56;6.50;;;4.57;;
41966;SDS011;27656;53.068;8.818;2023-06-19T13:58:23;5.75;;;4.88;;
41966;SDS011;27656;53.068;8.818;2023-06-19T14:00:50;7.07;;;4.20;;
41966;SDS011;27656;53.068;8.818;2023-06-19T14:03:16;8.65;;;5.90;;
41966;SDS011;27656;53.068;8.818;2023-06-19T14:05:43;6.97;;;5.20;;
41966;SDS011;27656;53.068;8.818;2023-06-19T14:08:10;7.35;;;5.47;;
41966;SDS011;27656;53.068;8.818;2023-06-19T14:10:36;7.32;;;5.95;;
41966;SDS011;27656;53.068;8.818;2023-06-19T14:13:03;6.55;;;4.97;;
41966;SDS011;27656;53.068;8.818;2023-06-19T14:15:29;5.30;;;4.80;;
41966;SDS011;27656;53.068;8.818;2023-06-19T14:17:56;5.85;;;5.28;;
41966;SDS011;27656;53.068;8.818;2023-06-19T14:20:22;5.05;;;4.50;;
41966;SDS011;27656;53.068;8.818;2023-06-19T14:22:49;9.52;;;5.30;;
41966;SDS011;27656;53.068;8.818;2023-06-19T14:25:16;5.25;;;4.57;;
41966;SDS011;27656;53.068;8.818;2023-06-19T14:27:43;5.68;;;5.07;;
41966;SDS011;27656;53.068;8.818;2023-06-19T14:30:09;5.68;;;4.43;;
41966;SDS011;27656;53.068;8.818;2023-06-19T14:32:36;5.03;;;4.53;;
41966;SDS011;27656;53.068;8.818;2023-06-19T14:35:03;7.53;;;5.38;;
41966;SDS011;27656;53.068;8.818;2023-06-19T14:37:30;6.22;;;5.10;;
41966;SDS011;27656;53.068;8.818;2023-06-19T14:39:57;6.80;;;4.95;;
41966;SDS011;27656;53.068;8.818;2023-06-19T14:42:23;5.55;;;5.05;;
41966;SDS011;27656;53.068;8.818;2023-06-19T14:44:50;7.75;;;5.32;;
41966;SDS011;27656;53.068;8.818;2023-06-19T14:47:17;6.47;;;5.80;;
41966;SDS011;27656;53.068;8.818;2023-06-19T14:49:43;6.15;;;5.45;;
41966;SDS011;27656;53.068;8.818;2023-06-19T14:52:10;9.13;;;5.57;;
41966;SDS011;27656;53.068;8.818;2023-06-19T14:54:36;7.82;;;5.53;;
41966;SDS011;27656;53.068;8.818;2023-06-19T14:57:04;6.93;;;5.10;;
41966;SDS011;27656;53.068;8.818;2023-06-19T14:59:30;6.15;;;5.03;;